• Join FlightAware (Why Join?)
  • Login
  • US Flag 
10:39PM EDT


 

Airport Tracker/Info


-or-


 

Live Flight TrackerFlight Track Log ✈ GJS3706 ✈ 07-May-2013 ✈ KORD - KCVG

Flight Track Log - Related Links

Times and Time Zones

All times are in EDT time to prevent confusion due to time zone crossing. See the GJS3706 flight status page for this flight to view local times or setup timezone preferences in your user account.

Time Position Orientation Groundspeed Altitude Reporting Facility
EDT Latitude Longitude Course Direction KTS MPH feet Rate Location/Type
10:29AM 41.9833 -87.8833 159° South 157 181 1,900  Level Chicago TRACON
10:30AM 41.9500 -87.8333 132° Southeast 223 257 3,800 1,620 Climbing Chicago TRACON
10:31AM 41.8667 -87.8000 163° South 279 321 5,000 960 Climbing Chicago TRACON
10:32AM 41.7586 -87.6464 159° South  Level Estimated
10:33AM 41.6616 -87.6690 190° South  Level FlightAware Approximate
10:33AM 41.7650 -87.7881 175° South 272 313 6,400  Level Chicago Center
10:34AM 41.5886 -87.5806 153° Southeast  Level Estimated
10:34AM 41.6869 -87.7636 167° South 294 338 9,900  Level Chicago Center
10:35AM 41.5155 -87.4924 159° South  Level Estimated
10:35AM 41.6131 -87.7100 152° Southeast 301 346 13,200  Level Chicago Center
10:36AM 41.5139 -87.6356 151° Southeast 339 390 16,200 2,700 Climbing Chicago Center
10:37AM 41.4253 -87.5753 153° Southeast 356 410 18,900 2,220 Climbing Chicago Center
10:38AM 41.3356 -87.5056 150° Southeast 371 427 20,900 960 Climbing Chicago Center
10:39AM 41.2431 -87.4344 150° Southeast 381 438 21,000  Climbing Chicago Center
10:40AM 41.1433 -87.3586 150° Southeast 407 468 21,000  Level Chicago Center
10:41AM 41.0414 -87.2808 150° Southeast 422 486 21,000  Level Chicago Center
10:42AM 40.9406 -87.2047 150° Southeast 420 483 21,000  Level Chicago Center
10:43AM 40.8219 -87.1147 150° Southeast 414 476 21,000  Level Chicago Center
10:44AM 40.7211 -87.0394 150° Southeast 417 480 21,000  Level Chicago Center
10:45AM 40.6214 -86.9650 150° Southeast 415 478 21,000  Level Chicago Center
10:46AM 40.5222 -86.8897 150° Southeast 415 478 21,000  Level Chicago Center
10:47AM 40.4217 -86.8156 151° Southeast 415 478 21,000  Level Chicago Center
10:49AM 40.2128 -86.6600 150° Southeast 413 475 21,000  Level Indianapolis Center
10:50AM 40.1061 -86.5806 150° Southeast 417 480 21,000  Level Chicago Center
10:51AM 40.0075 -86.5086 151° Southeast 411 473 21,000  Level Chicago Center
10:52AM 39.8908 -86.4236 151° Southeast 411 473 21,000  Level Indianapolis Center
10:53AM 39.8333 -86.3667 143° Southeast 409 471 21,000  Level Indianapolis TRACON
10:54AM 39.7833 -86.2500 119° Southeast 401 461 21,000 -1,140 Level Indianapolis TRACON
10:55AM 39.7333 -86.1000 113° Southeast 401 461 18,700 -2,040 Descending Indianapolis TRACON
10:55AM 39.7142 -86.0675 127° Southeast 396 456 18,000 -2,040 Descending Indianapolis Center
10:56AM 39.6739 -85.9453 113° Southeast 375 432 15,800 -1,920 Descending Indianapolis Center
10:58AM 39.6333 -85.8267 114° Southeast 363 418 14,100 -1,260 Descending Indianapolis Center
10:59AM 39.5950 -85.7111 113° Southeast 352 405 13,300 -1,200 Descending Indianapolis Center
11:00AM 39.5478 -85.5756 114° Southeast 345 397 11,700 -1,140 Descending Indianapolis Center
11:01AM 39.5128 -85.4728 114° Southeast 338 389 11,000 -360 Descending Indianapolis Center
11:02AM 39.4553 -85.3697 126° Southeast 346 398 11,000  Level Indianapolis Center
11:03AM 39.4011 -85.2703 125° Southeast 339 390 11,000  Level Indianapolis Center
11:04AM 39.3361 -85.1525 125° Southeast 341 392 11,000  Level Indianapolis Center
11:05AM 39.2808 -85.0511 125° Southeast 342 394 11,000  Level Indianapolis Center
11:06AM 39.2256 -84.9517 126° Southeast 341 392 11,000  Level Indianapolis Center
11:07AM 39.1686 -84.8508 126° Southeast 345 397 11,000 -120 Level Indianapolis Center
11:08AM 39.0964 -84.7822 144° Southeast 336 387 10,800 -780 Descending Indianapolis Center
11:09AM 39.0133 -84.7806 179° South 301 346 9,500 -1,560 Descending Indianapolis Center
11:10AM 38.9364 -84.7800 180° South 279 321 7,700 -1,920 Descending Indianapolis Center
11:11AM 38.8539 -84.7825 181° South 271 312 5,600 -1,440 Descending Indianapolis Center
11:12AM 38.7756 -84.7742 175° South 272 313 4,800 -1,020 Descending Indianapolis Center
11:14AM 38.9000 -84.6667 34° Northeast 177 204 2,600 -1,080 Descending Cincinnati TRACON